Terminal Aerodrome Forecast
Issued by NWS Glasgow, MT

Home | Current Version | Previous Version | Text Only | Print | Product List | Glossary On
Versions: 1 2 3 4 5 6 7 8 9 10 11 12
789
FTUS45 KGGW 191733 AAC
TAFGGW
TAF AMD
KGGW 191733Z 1918/2018 16007KT P6SM SCT250
     FM200300 VRB03KT P6SM SCT035 BKN080=

USA.gov is the U.S. government's official web portal to all federal, state and local government web resources and services.